Relax — ILWX2 — position and weather

sailwx.info

Track history (hours):
 
Tides and Currents Weather Stations Pressure Air Temp Water Temp Dewpoint Dewpoint Depression Visibility Wind Speed Wind Dir Waves Ship Positions

Relax

Last reported at 2016-Aug-24 15:28 UTC. Time now 2016-Aug-24 16:16 UTC.
Position N 40°33' E 014°14'.

MMSI: 247277800.

Date/timePositionNaut miles runAvg speedWind from/ knotsBaromVisibWave heightAir tempDewpointWater temp
2016-Aug-24 15:28N 40°33' E 014°14'1516.5
2016-Aug-24 14:33N 40°43' E 013°60'3 2.8
2016-Aug-24 13:33N 40°45' E 013°56'2 1.7
2016-Aug-24 12:22N 40°43' E 013°58'0 0.0
2016-Aug-24 11:28N 40°43' E 013°58'0 0.0
2016-Aug-24 10:28N 40°43' E 013°58'1 1.2
2016-Aug-24 09:33N 40°44' E 013°58'1110.9
2016-Aug-24 08:33N 40°38' E 014°10'10 9.4
2016-Aug-24 07:33N 40°34' E 014°21'7 0.4
2016-Aug-23 16:33N 40°37' E 014°29'1111.6
2016-Aug-23 15:33N 40°34' E 014°15'1 0.1
2016-Aug-23 08:05N 40°33' E 014°16'3 5.8
2016-Aug-23 07:33N 40°34' E 014°20'8 0.5
2016-Aug-22 16:29N 40°37' E 014°29'1211.7
2016-Aug-22 15:29N 40°33' E 014°15'1516.0
2016-Aug-22 14:33N 40°43' E 014°00'3 3.0
2016-Aug-22 13:33N 40°45' E 013°56'3 2.3
2016-Aug-22 12:22N 40°43' E 013°59'0 0.0
2016-Aug-22 11:28N 40°43' E 013°59'0 0.0
2016-Aug-22 10:21N 40°43' E 013°59'3 3.4
2016-Aug-22 09:33N 40°45' E 013°56'1110.9
2016-Aug-22 08:33N 40°38' E 014°08'1211.5
2016-Aug-22 07:33N 40°34' E 014°22'6 0.4
2016-Aug-21 16:19N 40°37' E 014°29'1214.6
2016-Aug-21 15:32N 40°33' E 014°15'1515.4
2016-Aug-21 14:33N 40°43' E 013°60'3 2.6
2016-Aug-21 13:33N 40°45' E 013°56'3 2.7
2016-Aug-21 12:27N 40°42' E 013°59'0 0.0
2016-Aug-21 11:27N 40°42' E 013°59'0 0.0
2016-Aug-21 10:33N 40°42' E 013°59'2 1.9
2016-Aug-21 09:33N 40°44' E 013°58'9 8.6
2016-Aug-21 08:33N 40°39' E 014°07'1111.2
2016-Aug-21 07:33N 40°34' E 014°21'7 0.4
2016-Aug-20 16:19N 40°37' E 014°29'1113.4
2016-Aug-20 15:28N 40°33' E 014°15'1616.7
2016-Aug-20 14:33N 40°44' E 013°59'2 2.1
2016-Aug-20 13:33N 40°45' E 013°57'3 2.5
2016-Aug-20 12:22N 40°42' E 013°59'0 0.0
2016-Aug-20 11:16N 40°42' E 013°59'3 1.8
2016-Aug-20 09:33N 40°45' E 013°57'1211.5
2016-Aug-20 08:33N 40°39' E 014°09'1110.6
2016-Aug-20 07:30N 40°34' E 014°23'4 0.3
2016-Aug-19 16:31N 40°36' E 014°28'10 9.8
2016-Aug-19 15:28N 40°34' E 014°15'1516.3
2016-Aug-19 14:34N 40°43' E 013°60'3 3.1
2016-Aug-19 13:33N 40°45' E 013°57'3 2.9
2016-Aug-19 12:30N 40°42' E 013°59'0 0.0
2016-Aug-19 11:30N 40°42' E 013°59'0 0.0
2016-Aug-19 10:29N 40°42' E 013°59'1 0.6
2016-Aug-19 09:33N 40°43' E 013°59'9 8.6
2016-Aug-19 08:33N 40°39' E 014°09'1211.7
2016-Aug-19 07:33N 40°34' E 014°23'5 0.3
2016-Aug-18 16:21N 40°37' E 014°29'1114.1
2016-Aug-18 15:33N 40°33' E 014°15'1515.2
2016-Aug-18 14:33N 40°43' E 013°59'2 2.5
2016-Aug-18 13:33N 40°45' E 013°56'3 2.9
2016-Aug-18 12:31N 40°42' E 013°59'0 0.0
2016-Aug-18 11:31N 40°42' E 013°59'0 0.0
2016-Aug-18 10:31N 40°42' E 013°59'0 0.0
2016-Aug-18 09:31N 40°42' E 013°59'7 7.6
2016-Aug-18 08:33N 40°40' E 014°08'1212.2
2016-Aug-18 07:33N 40°34' E 014°22'6 0.4
2016-Aug-17 16:19N 40°37' E 014°29'1114.8
2016-Aug-17 15:33N 40°33' E 014°15'1514.9
2016-Aug-17 14:33N 40°43' E 013°60'3 2.8
2016-Aug-17 13:33N 40°45' E 013°57'2 1.7
2016-Aug-17 12:21N 40°43' E 013°58'0 0.0
2016-Aug-17 11:33N 40°43' E 013°58'0 0.0
2016-Aug-17 10:33N 40°43' E 013°58'2 2.0
2016-Aug-17 09:33N 40°45' E 013°57'1313.4
2016-Aug-17 08:33N 40°38' E 014°12'10 9.2
2016-Aug-17 07:30N 40°34' E 014°24'5 0.4
2016-Aug-16 16:32N 40°37' E 014°30'1211.5
2016-Aug-16 15:29N 40°33' E 014°15'1516.5
2016-Aug-16 14:33N 40°44' E 013°59'2 2.4
2016-Aug-16 13:33N 40°45' E 013°57'3 2.3
2016-Aug-16 12:13N 40°42' E 013°59'0 0.0
2016-Aug-16 11:19N 40°42' E 013°59'0 0.0
2016-Aug-16 10:31N 40°42' E 013°59'0 0.0
2016-Aug-16 09:32N 40°42' E 013°59'8 8.0
2016-Aug-16 08:33N 40°39' E 014°08'1111.3
2016-Aug-16 07:33N 40°34' E 014°22'6 0.7
2016-Aug-15 22:21N 40°37' E 014°29'0 0.1
2016-Aug-15 16:28N 40°37' E 014°29'1112.5
2016-Aug-15 15:33N 40°33' E 014°15'1616.4
2016-Aug-15 14:33N 40°44' E 013°58'1 0.9
2016-Aug-15 13:23N 40°43' E 013°58'0 0.0
2016-Aug-15 12:29N 40°43' E 013°58'0 0.0
2016-Aug-15 11:23N 40°43' E 013°58'0 0.0
2016-Aug-15 10:29N 40°43' E 013°58'2 1.8
2016-Aug-15 09:33N 40°45' E 013°57'1010.5
2016-Aug-15 08:34N 40°40' E 014°09'1511.7
2016-Aug-15 07:17N 40°36' E 014°28'  
Track history (hours):
 
Tides and Currents Weather Stations Pressure Air Temp Water Temp Dewpoint Dewpoint Depression Visibility Wind Speed Wind Dir Waves Ship Positions

Relax

Last reported at 2016-Aug-24 15:28 UTC. Time now 2016-Aug-24 16:16 UTC.
Position N 40°33' E 014°14'.

MMSI: 247277800.

Date/timePositionNaut miles runAvg speedWind from/ knotsBaromVisibWave heightAir tempDewpointWater temp
2016-Aug-24 15:28N 40°33' E 014°14'1516.5
2016-Aug-24 14:33N 40°43' E 013°60'3 2.8
2016-Aug-24 13:33N 40°45' E 013°56'2 1.7
2016-Aug-24 12:22N 40°43' E 013°58'0 0.0
2016-Aug-24 11:28N 40°43' E 013°58'0 0.0
2016-Aug-24 10:28N 40°43' E 013°58'1 1.2
2016-Aug-24 09:33N 40°44' E 013°58'1110.9
2016-Aug-24 08:33N 40°38' E 014°10'10 9.4
2016-Aug-24 07:33N 40°34' E 014°21'7 0.4
2016-Aug-23 16:33N 40°37' E 014°29'1111.6
2016-Aug-23 15:33N 40°34' E 014°15'1 0.1
2016-Aug-23 08:05N 40°33' E 014°16'3 5.8
2016-Aug-23 07:33N 40°34' E 014°20'8 0.5
2016-Aug-22 16:29N 40°37' E 014°29'1211.7
2016-Aug-22 15:29N 40°33' E 014°15'1516.0
2016-Aug-22 14:33N 40°43' E 014°00'3 3.0
2016-Aug-22 13:33N 40°45' E 013°56'3 2.3
2016-Aug-22 12:22N 40°43' E 013°59'0 0.0
2016-Aug-22 11:28N 40°43' E 013°59'0 0.0
2016-Aug-22 10:21N 40°43' E 013°59'3 3.4
2016-Aug-22 09:33N 40°45' E 013°56'1110.9
2016-Aug-22 08:33N 40°38' E 014°08'1211.5
2016-Aug-22 07:33N 40°34' E 014°22'6 0.4
2016-Aug-21 16:19N 40°37' E 014°29'1214.6
2016-Aug-21 15:32N 40°33' E 014°15'1515.4
2016-Aug-21 14:33N 40°43' E 013°60'3 2.6
2016-Aug-21 13:33N 40°45' E 013°56'3 2.7
2016-Aug-21 12:27N 40°42' E 013°59'0 0.0
2016-Aug-21 11:27N 40°42' E 013°59'0 0.0
2016-Aug-21 10:33N 40°42' E 013°59'2 1.9
2016-Aug-21 09:33N 40°44' E 013°58'9 8.6
2016-Aug-21 08:33N 40°39' E 014°07'1111.2
2016-Aug-21 07:33N 40°34' E 014°21'7 0.4
2016-Aug-20 16:19N 40°37' E 014°29'1113.4
2016-Aug-20 15:28N 40°33' E 014°15'1616.7
2016-Aug-20 14:33N 40°44' E 013°59'2 2.1
2016-Aug-20 13:33N 40°45' E 013°57'3 2.5
2016-Aug-20 12:22N 40°42' E 013°59'0 0.0
2016-Aug-20 11:16N 40°42' E 013°59'3 1.8
2016-Aug-20 09:33N 40°45' E 013°57'1211.5
2016-Aug-20 08:33N 40°39' E 014°09'1110.6
2016-Aug-20 07:30N 40°34' E 014°23'4 0.3
2016-Aug-19 16:31N 40°36' E 014°28'10 9.8
2016-Aug-19 15:28N 40°34' E 014°15'1516.3
2016-Aug-19 14:34N 40°43' E 013°60'3 3.1
2016-Aug-19 13:33N 40°45' E 013°57'3 2.9
2016-Aug-19 12:30N 40°42' E 013°59'0 0.0
2016-Aug-19 11:30N 40°42' E 013°59'0 0.0
2016-Aug-19 10:29N 40°42' E 013°59'1 0.6
2016-Aug-19 09:33N 40°43' E 013°59'9 8.6
2016-Aug-19 08:33N 40°39' E 014°09'1211.7
2016-Aug-19 07:33N 40°34' E 014°23'5 0.3
2016-Aug-18 16:21N 40°37' E 014°29'1114.1
2016-Aug-18 15:33N 40°33' E 014°15'1515.2
2016-Aug-18 14:33N 40°43' E 013°59'2 2.5
2016-Aug-18 13:33N 40°45' E 013°56'3 2.9
2016-Aug-18 12:31N 40°42' E 013°59'0 0.0
2016-Aug-18 11:31N 40°42' E 013°59'0 0.0
2016-Aug-18 10:31N 40°42' E 013°59'0 0.0
2016-Aug-18 09:31N 40°42' E 013°59'7 7.6
2016-Aug-18 08:33N 40°40' E 014°08'1212.2
2016-Aug-18 07:33N 40°34' E 014°22'6 0.4
2016-Aug-17 16:19N 40°37' E 014°29'1114.8
2016-Aug-17 15:33N 40°33' E 014°15'1514.9
2016-Aug-17 14:33N 40°43' E 013°60'3 2.8
2016-Aug-17 13:33N 40°45' E 013°57'2 1.7
2016-Aug-17 12:21N 40°43' E 013°58'0 0.0
2016-Aug-17 11:33N 40°43' E 013°58'0 0.0
2016-Aug-17 10:33N 40°43' E 013°58'2 2.0
2016-Aug-17 09:33N 40°45' E 013°57'1313.4
2016-Aug-17 08:33N 40°38' E 014°12'10 9.2
2016-Aug-17 07:30N 40°34' E 014°24'5 0.4
2016-Aug-16 16:32N 40°37' E 014°30'1211.5
2016-Aug-16 15:29N 40°33' E 014°15'1516.5
2016-Aug-16 14:33N 40°44' E 013°59'2 2.4
2016-Aug-16 13:33N 40°45' E 013°57'3 2.3
2016-Aug-16 12:13N 40°42' E 013°59'0 0.0
2016-Aug-16 11:19N 40°42' E 013°59'0 0.0
2016-Aug-16 10:31N 40°42' E 013°59'0 0.0
2016-Aug-16 09:32N 40°42' E 013°59'8 8.0
2016-Aug-16 08:33N 40°39' E 014°08'1111.3
2016-Aug-16 07:33N 40°34' E 014°22'6 0.7
2016-Aug-15 22:21N 40°37' E 014°29'0 0.1
2016-Aug-15 16:28N 40°37' E 014°29'1112.5
2016-Aug-15 15:33N 40°33' E 014°15'1616.4
2016-Aug-15 14:33N 40°44' E 013°58'1 0.9
2016-Aug-15 13:23N 40°43' E 013°58'0 0.0
2016-Aug-15 12:29N 40°43' E 013°58'0 0.0
2016-Aug-15 11:23N 40°43' E 013°58'0 0.0
2016-Aug-15 10:29N 40°43' E 013°58'2 1.8
2016-Aug-15 09:33N 40°45' E 013°57'1010.5
2016-Aug-15 08:34N 40°40' E 014°09'1511.7
2016-Aug-15 07:17N 40°36' E 014°28'  

Dump ship's entire track history